createdAt,value
2024-01-18T00:03:24.506Z,6.09
2024-01-18T00:08:27.429Z,6.12
2024-01-18T00:13:28.963Z,6.10
2024-01-18T00:18:31.899Z,6.14
2024-01-18T00:23:34.998Z,6.14
2024-01-18T00:28:36.612Z,6.13
2024-01-18T00:33:38.203Z,6.14
2024-01-18T00:38:42.211Z,6.13
2024-01-18T00:43:43.747Z,6.16
2024-01-18T00:48:45.425Z,6.16
2024-01-18T00:53:48.435Z,6.15
2024-01-18T00:58:49.998Z,6.17
2024-01-18T01:03:51.711Z,6.17
2024-01-18T01:08:54.694Z,6.18
2024-01-18T01:13:56.375Z,6.13
2024-01-18T01:18:58.483Z,6.12
2024-01-18T01:24:01.830Z,6.14
2024-01-18T01:29:03.441Z,6.15
2024-01-18T01:34:05.111Z,6.21
2024-01-18T01:39:08.145Z,6.20
2024-01-18T01:44:09.831Z,6.15
2024-01-18T01:49:11.783Z,6.13
2024-01-18T01:54:15.550Z,6.13
2024-01-18T01:59:17.673Z,6.11
2024-01-18T02:04:20.064Z,6.11
2024-01-18T02:09:23.226Z,6.11
2024-01-18T02:14:25.308Z,6.06
2024-01-18T02:19:26.973Z,6.03
2024-01-18T02:24:36.840Z,6.04
2024-01-18T02:29:39.844Z,6.04
2024-01-18T02:34:41.926Z,5.98
2024-01-18T02:39:43.786Z,6.04
2024-01-18T02:44:47.177Z,6.06
2024-01-18T02:49:48.858Z,6.03
2024-01-18T02:54:50.460Z,6.04
2024-01-18T02:59:54.601Z,6.02
2024-01-18T03:04:56.213Z,6.00
2024-01-18T03:09:57.771Z,5.97
2024-01-18T03:15:00.701Z,5.99
2024-01-18T03:20:02.536Z,5.95
2024-01-18T03:25:04.842Z,5.94
2024-01-18T03:30:08.763Z,5.98
2024-01-18T03:35:10.414Z,5.93
2024-01-18T03:40:12.006Z,5.93
2024-01-18T03:45:15.862Z,5.92
2024-01-18T03:50:17.417Z,5.92
2024-01-18T03:55:18.980Z,5.90
2024-01-18T04:00:22.240Z,5.89
2024-01-18T04:05:23.867Z,5.89
2024-01-18T04:10:25.379Z,5.90
2024-01-18T04:15:28.383Z,5.95
2024-01-18T04:20:29.896Z,5.92
2024-01-18T04:25:31.499Z,5.90
2024-01-18T04:30:34.477Z,5.91
2024-01-18T04:35:36.325Z,5.84
2024-01-18T04:40:37.915Z,5.85
2024-01-18T04:45:40.936Z,5.84
2024-01-18T04:50:42.605Z,5.81
2024-01-18T04:55:44.708Z,5.82
2024-01-18T05:00:47.703Z,5.76
2024-01-18T05:05:49.677Z,5.74
2024-01-18T05:10:51.421Z,5.70
2024-01-18T05:15:54.481Z,5.72
2024-01-18T05:20:56.179Z,5.70
2024-01-18T05:25:57.882Z,5.70
2024-01-18T05:31:00.793Z,5.67
2024-01-18T05:36:02.486Z,5.70
2024-01-18T05:41:04.411Z,5.67
2024-01-18T05:46:07.862Z,5.63
2024-01-18T05:51:09.427Z,5.59
2024-01-18T05:56:10.962Z,5.56
2024-01-18T06:01:13.945Z,5.59
2024-01-18T06:06:16.394Z,5.52
2024-01-18T06:11:19.646Z,5.52
2024-01-18T06:16:22.543Z,5.52
2024-01-18T06:21:24.287Z,5.47
2024-01-18T06:26:25.896Z,5.42
2024-01-18T06:31:28.757Z,5.41
2024-01-18T06:36:30.549Z,5.41
2024-01-18T06:41:32.306Z,5.38
2024-01-18T06:46:35.374Z,5.40
2024-01-18T06:51:37.057Z,5.41
2024-01-18T06:56:38.605Z,5.37
2024-01-18T07:01:41.581Z,5.38
2024-01-18T07:06:43.271Z,5.39
2024-01-18T07:11:44.905Z,5.38
2024-01-18T07:16:47.846Z,5.42
2024-01-18T07:21:49.433Z,5.45
2024-01-18T07:26:51.086Z,5.45
2024-01-18T07:31:53.992Z,5.46
2024-01-18T07:36:55.662Z,5.43
2024-01-18T07:41:57.431Z,5.42
2024-01-18T07:47:00.420Z,5.48
2024-01-18T07:52:02.037Z,5.49
2024-01-18T07:57:03.981Z,5.54
2024-01-18T08:02:07.087Z,5.60
2024-01-18T08:07:08.720Z,5.66
2024-01-18T08:12:10.378Z,5.67
2024-01-18T08:17:13.368Z,5.63
2024-01-18T08:22:15.933Z,5.67
2024-01-18T08:27:17.529Z,5.71
2024-01-18T08:32:20.482Z,5.75
2024-01-18T08:37:22.195Z,5.80
2024-01-18T08:42:23.894Z,5.91
2024-01-18T08:47:26.926Z,5.97
2024-01-18T08:52:28.583Z,5.99
2024-01-18T08:57:30.364Z,6.09
2024-01-18T09:02:33.305Z,6.32
2024-01-18T09:07:34.943Z,6.47
2024-01-18T09:12:36.650Z,6.73
2024-01-18T09:17:42.116Z,6.81
2024-01-18T09:22:44.749Z,6.84
2024-01-18T09:27:46.540Z,6.83
2024-01-18T09:32:49.661Z,6.83
2024-01-18T09:37:51.245Z,6.84
2024-01-18T09:42:54.155Z,6.96
2024-01-18T09:47:57.166Z,6.92
2024-01-18T09:52:59.076Z,6.88
2024-01-18T09:58:03.721Z,6.95
2024-01-18T10:03:06.848Z,6.86
2024-01-18T10:08:08.633Z,6.90
2024-01-18T10:13:12.333Z,6.86
2024-01-18T10:18:15.287Z,6.97
2024-01-18T10:23:16.916Z,7.06
2024-01-18T10:28:18.520Z,7.04
2024-01-18T10:33:21.693Z,7.09
2024-01-18T10:38:29.150Z,7.26
2024-01-18T10:43:31.719Z,7.26
2024-01-18T10:48:34.719Z,7.48
2024-01-18T10:53:37.262Z,7.61
2024-01-18T10:58:38.856Z,7.69
2024-01-18T11:03:44.454Z,7.81
2024-01-18T11:08:48.562Z,7.95
2024-01-18T11:13:50.397Z,7.92
2024-01-18T11:18:58.320Z,8.12
2024-01-18T11:24:06.800Z,8.19
2024-01-18T11:29:19.131Z,8.24
2024-01-18T11:34:31.941Z,8.24
2024-01-18T11:39:57.591Z,8.26
2024-01-18T11:45:01.129Z,8.19
2024-01-18T11:50:04.858Z,8.02
2024-01-18T11:55:07.978Z,7.25
2024-01-18T12:00:10.344Z,4.65
2024-01-18T12:05:13.366Z,3.63
2024-01-18T12:10:15.737Z,2.28
2024-01-18T12:15:17.986Z,1.29
2024-01-18T12:20:21.113Z,0.80
2024-01-18T12:25:22.737Z,0.61
2024-01-18T12:30:24.583Z,0.58
2024-01-18T12:35:27.648Z,0.53
2024-01-18T12:40:29.639Z,0.50
2024-01-18T12:45:32.168Z,0.44
2024-01-18T12:50:35.155Z,0.52
2024-01-18T12:55:36.970Z,0.49
2024-01-18T13:00:38.505Z,0.68
2024-01-18T13:05:44.460Z,0.58
2024-01-18T13:10:46.704Z,0.48
2024-01-18T13:15:48.323Z,0.47
2024-01-18T13:20:51.210Z,0.16
2024-01-18T13:25:52.876Z,0.15
2024-01-18T13:30:54.462Z,-0.02
2024-01-18T13:35:57.411Z,-0.10
2024-01-18T13:40:58.932Z,-0.16
2024-01-18T13:46:01.870Z,-0.25
2024-01-18T13:51:05.122Z,-0.31
2024-01-18T13:56:07.001Z,-0.35
2024-01-18T14:01:08.563Z,-0.74
2024-01-18T14:06:11.692Z,-0.90
2024-01-18T14:11:15.371Z,-0.92
2024-01-18T14:16:17.034Z,-0.97
2024-01-18T14:21:21.040Z,-1.08
2024-01-18T14:26:22.715Z,-1.13
2024-01-18T14:31:24.345Z,-1.20
2024-01-18T14:36:27.401Z,-1.28
2024-01-18T14:41:29.028Z,-1.41
2024-01-18T14:46:30.553Z,-1.34
2024-01-18T14:51:33.519Z,-1.26
2024-01-18T14:56:35.069Z,-1.50
2024-01-18T15:01:36.655Z,-1.50
2024-01-18T15:06:39.884Z,-1.66
2024-01-18T15:11:42.585Z,-1.63
2024-01-18T15:16:44.250Z,-1.71
2024-01-18T15:21:47.830Z,-1.74
2024-01-18T15:26:50.156Z,-1.85
2024-01-18T15:31:51.823Z,-1.89
2024-01-18T15:36:55.005Z,-1.97
2024-01-18T15:41:56.602Z,-2.08
2024-01-18T15:46:59.734Z,-2.03
2024-01-18T15:52:02.934Z,-2.06
2024-01-18T15:57:05.125Z,-2.03
2024-01-18T16:02:06.710Z,-2.05
2024-01-18T16:07:09.661Z,-2.11
2024-01-18T16:12:11.415Z,-2.12
2024-01-18T16:17:13.043Z,-2.17
2024-01-18T16:22:16.061Z,-2.23
2024-01-18T16:27:17.710Z,-2.22
2024-01-18T16:32:19.240Z,-2.23
2024-01-18T16:37:22.146Z,-2.23
2024-01-18T16:42:23.677Z,-2.22
2024-01-18T16:47:25.257Z,-2.32
2024-01-18T16:52:28.103Z,-2.28
2024-01-18T16:57:32.915Z,-2.25
2024-01-18T17:02:35.294Z,-2.27
2024-01-18T17:07:38.236Z,-2.31
2024-01-18T17:12:40.068Z,-2.28
2024-01-18T17:17:41.692Z,-2.35
2024-01-18T17:22:44.684Z,-2.38
2024-01-18T17:27:46.252Z,-2.37
2024-01-18T17:32:48.375Z,-2.39
2024-01-18T17:37:51.878Z,-2.44
2024-01-18T17:42:53.621Z,-2.49
2024-01-18T17:47:55.255Z,-2.63
2024-01-18T17:52:58.170Z,-2.75
2024-01-18T17:57:59.713Z,-2.92
2024-01-18T18:03:01.331Z,-3.00
2024-01-18T18:08:04.945Z,-3.02
2024-01-18T18:13:06.598Z,-3.02
2024-01-18T18:18:08.210Z,-3.01
2024-01-18T18:23:11.218Z,-3.01
2024-01-18T18:28:12.904Z,-2.98
2024-01-18T18:33:14.800Z,-2.91
2024-01-18T18:38:27.021Z,-2.97
2024-01-18T18:43:32.107Z,-2.90
2024-01-18T18:48:33.650Z,-2.88
2024-01-18T18:53:36.632Z,-2.88
2024-01-18T18:58:38.150Z,-2.97
2024-01-18T19:03:39.668Z,-2.92
2024-01-18T19:08:42.620Z,-2.90
2024-01-18T19:13:44.269Z,-2.93
2024-01-18T19:18:46.114Z,-3.03
2024-01-18T19:23:49.314Z,-2.95
2024-01-18T19:28:50.887Z,-2.97
2024-01-18T19:33:53.487Z,-2.98
2024-01-18T19:38:56.452Z,-2.90
2024-01-18T19:43:58.110Z,-2.93
2024-01-18T19:48:59.825Z,-2.95
2024-01-18T19:54:02.710Z,-2.94
2024-01-18T19:59:04.226Z,-3.00
2024-01-18T20:04:05.895Z,-2.96
2024-01-18T20:09:08.862Z,-3.00
2024-01-18T20:14:10.453Z,-2.95
2024-01-18T20:19:12.132Z,-2.93
2024-01-18T20:24:15.085Z,-2.95
2024-01-18T20:29:16.873Z,-2.88
2024-01-18T20:34:18.485Z,-2.86
2024-01-18T20:39:21.751Z,-2.90
2024-01-18T20:44:23.501Z,-2.86
2024-01-18T20:49:25.414Z,-2.89
2024-01-18T20:54:28.297Z,-2.85
2024-01-18T20:59:29.954Z,-2.83
2024-01-18T21:04:31.742Z,-2.92
2024-01-18T21:09:34.675Z,-2.96
2024-01-18T21:14:36.252Z,-2.94
2024-01-18T21:19:37.818Z,-3.00
2024-01-18T21:24:40.707Z,-3.02
2024-01-18T21:29:42.241Z,-3.05
2024-01-18T21:34:43.894Z,-3.09
2024-01-18T21:39:46.737Z,-3.11
2024-01-18T21:44:48.637Z,-3.10
2024-01-18T21:49:50.771Z,-3.19
2024-01-18T21:54:53.774Z,-3.19
2024-01-18T21:59:55.366Z,-3.21
2024-01-18T22:04:56.993Z,-3.29
2024-01-18T22:09:59.902Z,-3.25
2024-01-18T22:15:01.624Z,-3.28
2024-01-18T22:20:05.696Z,-3.28
2024-01-18T22:25:10.161Z,-3.32
2024-01-18T22:30:12.182Z,-3.32
2024-01-18T22:35:13.927Z,-3.29
2024-01-18T22:40:17.059Z,-3.30
2024-01-18T22:45:18.707Z,-3.29
2024-01-18T22:50:20.527Z,-3.36
2024-01-18T22:55:23.538Z,-3.35
2024-01-18T23:00:25.166Z,-3.30
2024-01-18T23:05:26.833Z,-3.27
2024-01-18T23:10:29.817Z,-3.25
2024-01-18T23:15:31.328Z,-3.29
2024-01-18T23:20:32.968Z,-3.26
2024-01-18T23:25:35.906Z,-3.27
2024-01-18T23:30:37.772Z,-3.23
2024-01-18T23:35:39.398Z,-3.25
2024-01-18T23:40:42.382Z,-3.24
2024-01-18T23:45:43.935Z,-3.29
2024-01-18T23:50:45.579Z,-3.29
2024-01-18T23:55:48.538Z,-3.34
